Time;durP1;ratioP1;P1;durP2;ratioP2;P2;SDS_P1;SDS_P2;PMS_P1;PMS_P2;Temp;Humidity;BMP_temperature;BMP_pressure;BME280_temperature;BME280_humidity;BME280_pressure;Samples;Min_cycle;Max_cycle;Signal;HPM_P1;HPM_P2
2022/10/07 00:00:45;;;;;;;6.05;2.90;;;14.40;99.90;;;;;;5037007;28;20478;-65
2022/10/07 00:03:11;;;;;;;2.70;2.50;;;14.30;99.90;;;;;;5043541;28;20246;-66
2022/10/07 00:05:37;;;;;;;4.60;3.10;;;14.40;99.90;;;;;;5033586;28;20296;-65
2022/10/07 00:08:02;;;;;;;7.77;3.20;;;14.10;99.90;;;;;;5038323;28;20181;-64
2022/10/07 00:10:28;;;;;;;6.07;3.47;;;14.30;99.90;;;;;;5038898;28;20316;-67
2022/10/07 00:12:54;;;;;;;5.93;2.87;;;13.90;99.90;;;;;;5031495;28;20194;-66
2022/10/07 00:15:19;;;;;;;3.70;2.80;;;14.20;99.90;;;;;;5035626;28;20468;-64
2022/10/07 00:17:45;;;;;;;3.97;3.10;;;14.20;99.90;;;;;;5033674;28;20211;-66
2022/10/07 00:20:11;;;;;;;8.13;4.50;;;14.00;99.90;;;;;;5033899;28;20931;-66
2022/10/07 00:22:36;;;;;;;7.27;3.67;;;14.10;99.90;;;;;;5030717;28;20206;-64
2022/10/07 00:25:02;;;;;;;3.77;3.00;;;14.10;99.90;;;;;;5037370;28;20183;-66
2022/10/07 00:27:28;;;;;;;5.50;3.13;;;14.20;99.90;;;;;;5035243;28;20843;-65
2022/10/07 00:29:53;;;;;;;3.47;3.07;;;13.90;99.90;;;;;;5037533;28;20302;-65
2022/10/07 00:32:19;;;;;;;4.27;3.33;;;14.10;99.90;;;;;;5031837;28;20182;-67
2022/10/07 00:34:44;;;;;;;5.17;3.30;;;14.30;99.90;;;;;;5040554;28;20542;-65
2022/10/07 00:37:10;;;;;;;4.90;3.30;;;14.10;99.90;;;;;;5030600;28;20194;-65
2022/10/07 00:39:35;;;;;;;6.13;3.10;;;14.40;99.90;;;;;;5033285;28;20729;-66
2022/10/07 00:42:01;;;;;;;4.30;3.23;;;14.20;99.90;;;;;;5029725;28;20214;-65
2022/10/07 00:44:35;;;;;;;4.60;3.20;;;14.00;99.90;;;;;;5035617;28;20192;-65
2022/10/07 00:47:09;;;;;;;5.90;3.47;;;14.30;99.90;;;;;;5033589;28;20189;-66
2022/10/07 00:49:45;;;;;;;4.00;3.35;;;14.20;99.90;;;;;;5034468;28;20186;-65
2022/10/07 00:52:13;;;;;;;7.72;3.25;;;14.30;99.90;;;;;;5035461;28;20197;-66
2022/10/07 00:54:39;;;;;;;5.65;3.10;;;14.00;99.90;;;;;;5036993;28;20190;-67
2022/10/07 00:57:05;;;;;;;6.15;3.10;;;14.20;99.90;;;;;;5039656;28;20205;-66
2022/10/07 00:59:32;;;;;;;4.50;3.80;;;13.80;99.90;;;;;;5032590;28;20611;-67
2022/10/07 01:01:57;;;;;;;6.60;3.20;;;14.10;99.90;;;;;;5039018;28;20228;-65
2022/10/07 01:04:23;;;;;;;3.20;3.00;;;14.30;99.90;;;;;;5035673;28;20647;-67
2022/10/07 01:06:49;;;;;;;3.60;3.30;;;14.20;99.90;;;;;;5031941;28;20206;-65
2022/10/07 01:09:14;;;;;;;3.67;3.37;;;14.30;99.90;;;;;;5034468;28;20651;-65
2022/10/07 01:12:05;;;;;;;4.20;2.80;;;14.20;99.90;;;;;;5042107;28;20432;-66
2022/10/07 01:14:53;;;;;;;4.32;2.90;;;14.30;99.90;;;;;;5034267;28;20257;-66
2022/10/07 01:17:46;;;;;;;5.00;2.85;;;14.40;99.90;;;;;;5030501;28;20659;-66
2022/10/07 01:20:36;;;;;;;3.60;3.00;;;14.30;99.90;;;;;;5032799;28;20182;-66
2022/10/07 01:23:24;;;;;;;6.72;3.47;;;14.20;99.90;;;;;;5034256;28;20206;-66
2022/10/07 01:26:12;;;;;;;5.90;2.85;;;14.30;99.90;;;;;;5034473;28;20644;-69
2022/10/07 01:28:47;;;;;;;4.28;3.20;;;14.40;99.90;;;;;;5027168;28;20194;-66
2022/10/07 01:31:18;;;;;;;6.30;2.60;;;14.30;99.90;;;;;;5036015;28;20189;-68
2022/10/07 01:33:45;;;;;;;3.90;3.10;;;14.30;99.90;;;;;;5028260;28;20247;-66
2022/10/07 01:36:20;;;;;;;4.63;3.08;;;14.60;99.90;;;;;;5039223;28;20279;-65
2022/10/07 01:39:01;;;;;;;3.65;2.90;;;14.40;99.90;;;;;;5029989;28;20193;-66
2022/10/07 01:41:28;;;;;;;3.47;2.60;;;14.30;99.90;;;;;;5027506;28;20568;-64
2022/10/07 01:43:56;;;;;;;5.03;2.70;;;14.20;99.90;;;;;;5037418;28;20691;-65
2022/10/07 01:46:24;;;;;;;6.35;3.10;;;14.20;99.90;;;;;;5039110;28;20205;-67
2022/10/07 01:48:50;;;;;;;5.28;2.80;;;14.10;99.90;;;;;;5034660;28;20265;-65
2022/10/07 01:51:17;;;;;;;3.53;2.45;;;14.40;99.90;;;;;;5038982;28;20189;-66
2022/10/07 01:53:43;;;;;;;5.00;3.03;;;14.10;99.90;;;;;;5039639;28;20182;-65
2022/10/07 01:56:27;;;;;;;3.83;2.90;;;14.50;99.90;;;;;;5037043;28;20313;-65
2022/10/07 01:58:52;;;;;;;6.75;2.72;;;14.40;99.90;;;;;;5034894;28;20187;-67
2022/10/07 02:01:21;;;;;;;5.30;3.23;;;14.30;99.90;;;;;;5034434;28;20196;-65
2022/10/07 02:03:49;;;;;;;4.28;3.45;;;14.30;99.90;;;;;;5037333;28;20300;-63
2022/10/07 02:06:33;;;;;;;4.85;3.08;;;14.40;99.90;;;;;;5022458;28;20230;-64
2022/10/07 02:09:03;;;;;;;3.03;2.80;;;14.50;99.90;;;;;;5042945;28;20621;-63
2022/10/07 02:11:35;;;;;;;4.85;3.40;;;14.30;99.90;;;;;;5037533;28;20186;-64
2022/10/07 02:14:01;;;;;;;4.60;2.90;;;14.20;99.90;;;;;;5039469;28;20395;-64
2022/10/07 02:16:47;;;;;;;4.60;2.60;;;14.30;99.90;;;;;;5035589;28;20678;-63
2022/10/07 02:19:20;;;;;;;3.67;2.80;;;14.40;99.90;;;;;;5038601;28;20235;-64
2022/10/07 02:21:49;;;;;;;3.15;2.65;;;14.50;99.90;;;;;;5039392;28;20228;-64
2022/10/07 02:24:16;;;;;;;5.50;2.85;;;14.60;99.90;;;;;;5036869;28;20205;-63
2022/10/07 02:26:43;;;;;;;3.95;2.80;;;14.40;99.90;;;;;;5033735;28;20210;-64
2022/10/07 02:29:13;;;;;;;4.20;2.70;;;14.50;99.90;;;;;;5038567;28;20178;-64
2022/10/07 02:31:41;;;;;;;5.57;2.78;;;14.50;99.90;;;;;;5037111;28;20243;-64
2022/10/07 02:34:12;;;;;;;3.03;2.72;;;14.50;99.90;;;;;;5038126;28;20178;-63
2022/10/07 02:36:43;;;;;;;3.65;2.63;;;14.40;99.90;;;;;;5036807;28;20229;-63
2022/10/07 02:39:10;;;;;;;4.60;2.67;;;14.60;99.90;;;;;;5034828;28;20173;-65
2022/10/07 02:41:53;;;;;;;3.88;3.10;;;14.50;99.90;;;;;;5027197;28;20741;-63
2022/10/07 02:44:34;;;;;;;6.65;3.30;;;14.40;99.90;;;;;;5035328;28;20293;-64
2022/10/07 02:47:27;;;;;;;4.78;2.85;;;14.20;99.90;;;;;;5035401;28;20678;-63
2022/10/07 02:49:56;;;;;;;6.57;3.00;;;14.30;99.90;;;;;;5032456;28;20182;-63
2022/10/07 02:52:23;;;;;;;4.15;2.70;;;14.50;99.90;;;;;;5039252;28;20186;-63
2022/10/07 02:54:58;;;;;;;3.05;2.75;;;14.50;99.90;;;;;;5036125;28;20202;-63
2022/10/07 02:57:29;;;;;;;4.82;2.67;;;14.50;99.90;;;;;;5026328;28;20191;-63
2022/10/07 02:59:57;;;;;;;4.90;3.30;;;14.50;99.90;;;;;;5029634;28;20273;-64
2022/10/07 03:02:43;;;;;;;6.28;3.75;;;14.50;99.90;;;;;;5037955;28;20193;-63
2022/10/07 03:05:12;;;;;;;4.35;2.72;;;14.70;99.90;;;;;;5036345;28;20205;-63
2022/10/07 03:07:38;;;;;;;6.40;4.93;;;14.80;99.90;;;;;;5039716;28;20280;-63
2022/10/07 03:10:05;;;;;;;3.17;2.90;;;14.60;99.90;;;;;;5029160;28;20276;-63
2022/10/07 03:12:31;;;;;;;4.43;2.97;;;14.60;99.90;;;;;;5030578;28;20908;-63
2022/10/07 03:14:57;;;;;;;7.57;3.40;;;14.40;99.90;;;;;;5032296;28;20217;-63
2022/10/07 03:17:22;;;;;;;3.60;3.30;;;14.50;99.90;;;;;;5028537;28;20651;-66
2022/10/07 03:19:48;;;;;;;4.30;3.10;;;14.60;99.90;;;;;;5032801;28;20450;-63
2022/10/07 03:22:13;;;;;;;6.13;3.57;;;14.40;99.90;;;;;;5026327;28;20263;-63
2022/10/07 03:24:40;;;;;;;3.20;2.77;;;14.60;99.90;;;;;;5033141;28;20185;-63
2022/10/07 03:27:06;;;;;;;4.10;2.40;;;14.50;99.90;;;;;;5031455;28;20201;-63
2022/10/07 03:29:33;;;;;;;4.93;3.00;;;14.40;99.90;;;;;;5030561;28;20186;-63
2022/10/07 03:32:00;;;;;;;3.70;3.35;;;14.70;99.90;;;;;;5033828;28;20186;-63
2022/10/07 03:34:26;;;;;;;4.70;3.17;;;14.80;99.90;;;;;;5026912;28;20252;-63
2022/10/07 03:36:53;;;;;;;5.90;3.70;;;14.50;99.90;;;;;;5031314;28;20202;-63
2022/10/07 03:39:18;;;;;;;4.70;3.35;;;14.60;99.90;;;;;;5032070;28;20274;-63
2022/10/07 03:41:46;;;;;;;3.33;3.03;;;14.50;99.90;;;;;;5024810;28;20276;-63
2022/10/07 03:44:11;;;;;;;6.78;3.30;;;14.50;99.90;;;;;;5032518;28;20957;-63
2022/10/07 03:46:37;;;;;;;4.90;3.20;;;14.70;99.90;;;;;;5028986;28;20209;-63
2022/10/07 03:49:03;;;;;;;4.00;3.60;;;14.70;99.90;;;;;;5030877;28;20444;-63
2022/10/07 03:51:29;;;;;;;4.30;2.97;;;14.80;99.90;;;;;;5032932;28;20269;-64
2022/10/07 03:53:56;;;;;;;5.53;3.17;;;14.50;99.90;;;;;;5032528;28;20278;-63
2022/10/07 03:56:21;;;;;;;3.53;2.80;;;14.60;99.90;;;;;;5029007;28;20198;-63
2022/10/07 03:58:47;;;;;;;4.33;3.00;;;14.40;99.90;;;;;;5030045;28;20251;-63
2022/10/07 04:01:16;;;;;;;5.53;3.40;;;14.40;99.90;;;;;;5030345;28;20206;-63
2022/10/07 04:03:42;;;;;;;4.18;3.42;;;14.40;99.90;;;;;;5036727;28;20213;-62
2022/10/07 04:06:09;;;;;;;5.73;3.10;;;14.30;99.90;;;;;;5034991;28;20276;-62
2022/10/07 04:08:35;;;;;;;3.85;3.35;;;14.50;99.90;;;;;;5032573;28;20193;-62
2022/10/07 04:11:02;;;;;;;4.70;3.10;;;14.40;99.90;;;;;;5029260;28;20183;-62
2022/10/07 04:13:28;;;;;;;3.40;3.10;;;14.30;99.90;;;;;;5028044;28;20274;-64
2022/10/07 04:15:54;;;;;;;4.30;3.73;;;14.40;99.90;;;;;;5030555;28;20987;-62
2022/10/07 04:18:20;;;;;;;6.03;4.50;;;14.40;99.90;;;;;;5030427;28;20186;-67
2022/10/07 04:20:46;;;;;;;7.45;3.47;;;14.20;99.90;;;;;;5026888;28;20304;-64
2022/10/07 04:23:12;;;;;;;3.90;3.50;;;14.30;99.90;;;;;;5032312;28;20407;-66
2022/10/07 04:25:42;;;;;;;4.07;3.20;;;14.40;99.90;;;;;;5028467;28;20222;-66
2022/10/07 04:28:14;;;;;;;5.47;3.47;;;14.20;99.90;;;;;;5025480;28;20885;-66
2022/10/07 04:30:42;;;;;;;5.72;3.25;;;14.50;99.90;;;;;;5027617;28;20252;-64
2022/10/07 04:33:08;;;;;;;4.60;3.17;;;14.50;99.90;;;;;;5026031;28;20241;-64
2022/10/07 04:35:38;;;;;;;5.57;3.70;;;14.10;99.90;;;;;;5027973;28;20206;-66
2022/10/07 04:38:07;;;;;;;4.75;3.75;;;14.20;99.90;;;;;;5025291;28;20190;-66
2022/10/07 04:40:37;;;;;;;5.75;3.45;;;14.20;99.90;;;;;;5033454;28;20269;-64
2022/10/07 04:45:52;;;;;;;4.68;3.00;;;14.20;99.90;;;;;;5032427;28;20216;-66
2022/10/07 04:48:20;;;;;;;5.68;3.35;;;14.50;99.90;;;;;;5031846;28;20182;-66
2022/10/07 04:50:46;;;;;;;6.25;3.20;;;14.20;99.90;;;;;;5036679;28;20191;-66
2022/10/07 04:53:13;;;;;;;7.38;3.97;;;14.20;99.90;;;;;;5031830;28;20186;-66
2022/10/07 04:55:45;;;;;;;7.80;4.18;;;14.10;99.90;;;;;;5032896;28;20217;-64
2022/10/07 04:58:11;;;;;;;6.03;4.05;;;14.20;99.90;;;;;;5034990;28;20266;-66
2022/10/07 05:00:46;;;;;;;4.45;3.92;;;14.40;99.90;;;;;;5034620;28;20193;-66
2022/10/07 05:03:16;;;;;;;6.65;3.70;;;14.30;99.90;;;;;;5030488;28;20251;-65
2022/10/07 05:05:47;;;;;;;4.20;3.72;;;14.40;99.90;;;;;;5030811;28;20233;-66
2022/10/07 05:08:14;;;;;;;4.85;3.30;;;14.30;99.90;;;;;;5027044;28;20664;-66
2022/10/07 05:10:40;;;;;;;6.15;4.85;;;14.30;99.90;;;;;;5027751;28;20194;-66
2022/10/07 05:13:11;;;;;;;3.63;3.03;;;14.60;99.90;;;;;;5037081;28;20542;-66
2022/10/07 05:15:37;;;;;;;4.03;3.30;;;14.40;99.90;;;;;;5030610;28;20654;-66
2022/10/07 05:18:04;;;;;;;5.40;3.90;;;14.30;99.90;;;;;;5028261;28;20272;-71
2022/10/07 05:20:30;;;;;;;4.30;3.40;;;14.60;99.90;;;;;;5032533;28;20208;-72
2022/10/07 05:22:55;;;;;;;10.23;3.93;;;14.50;99.90;;;;;;5030034;28;20697;-72
2022/10/07 05:25:21;;;;;;;7.50;3.90;;;14.30;99.90;;;;;;5026771;28;20194;-71
2022/10/07 05:27:51;;;;;;;6.30;4.23;;;14.10;99.90;;;;;;5023513;28;20263;-70
2022/10/07 05:30:18;;;;;;;5.70;4.15;;;14.20;99.90;;;;;;5032426;28;20188;-71
2022/10/07 05:32:44;;;;;;;6.85;4.05;;;14.50;99.90;;;;;;5026286;28;20190;-72
2022/10/07 05:35:09;;;;;;;5.30;3.70;;;14.40;99.90;;;;;;5028900;28;20198;-73
2022/10/07 05:37:35;;;;;;;6.20;3.87;;;14.30;99.90;;;;;;5027540;28;20190;-73
2022/10/07 05:40:00;;;;;;;8.53;3.83;;;14.20;99.90;;;;;;5024736;28;20178;-73
2022/10/07 05:42:26;;;;;;;4.27;3.87;;;14.30;99.90;;;;;;5026478;28;20571;-72
2022/10/07 05:44:52;;;;;;;5.00;3.80;;;14.20;99.90;;;;;;5031765;28;20184;-71
2022/10/07 05:47:18;;;;;;;5.30;3.97;;;14.30;99.90;;;;;;5025426;28;20190;-71
2022/10/07 05:49:44;;;;;;;10.38;3.90;;;14.60;99.90;;;;;;5030209;28;20182;-71
2022/10/07 05:52:09;;;;;;;6.93;4.40;;;14.40;99.90;;;;;;5031300;28;20595;-69
2022/10/07 05:54:35;;;;;;;5.50;4.43;;;14.50;99.90;;;;;;5030261;28;20264;-69
2022/10/07 05:57:01;;;;;;;5.57;4.10;;;14.50;99.90;;;;;;5029860;28;20213;-71
2022/10/07 05:59:27;;;;;;;8.13;3.60;;;14.80;99.90;;;;;;5030942;28;20289;-69
2022/10/07 06:01:56;;;;;;;8.67;4.23;;;14.80;99.90;;;;;;5034424;28;20663;-71
2022/10/07 06:04:21;;;;;;;5.80;4.20;;;14.70;99.90;;;;;;5025789;28;20229;-70
2022/10/07 06:06:47;;;;;;;5.20;4.70;;;14.70;99.90;;;;;;5036165;28;20205;-69
2022/10/07 06:14:41;;;;;;;4.90;4.25;;;14.70;99.90;;;;;;5028122;28;20176;-71
2022/10/07 06:17:06;;;;;;;7.17;5.00;;;14.70;99.90;;;;;;5029367;28;20197;-69
2022/10/07 06:19:32;;;;;;;5.67;4.00;;;14.70;99.90;;;;;;5031260;28;20549;-70
2022/10/07 06:21:58;;;;;;;6.63;3.80;;;14.80;99.90;;;;;;5028230;28;20241;-69
2022/10/07 06:24:24;;;;;;;6.80;4.13;;;14.70;99.90;;;;;;5027332;28;20224;-66
2022/10/07 06:26:50;;;;;;;8.95;4.03;;;14.50;99.90;;;;;;5025350;28;20671;-65
2022/10/07 06:29:15;;;;;;;6.97;3.97;;;14.80;99.90;;;;;;5024212;28;20194;-66
2022/10/07 06:31:41;;;;;;;5.80;4.60;;;15.00;99.90;;;;;;5026801;28;20628;-70
2022/10/07 06:34:07;;;;;;;5.03;4.50;;;14.90;99.90;;;;;;5025846;28;20190;-65
2022/10/07 06:36:32;;;;;;;7.63;4.37;;;15.20;99.90;;;;;;5027767;28;20630;-66
2022/10/07 06:38:58;;;;;;;5.70;3.70;;;15.20;99.90;;;;;;5026770;28;20221;-66
2022/10/07 06:41:23;;;;;;;5.13;4.10;;;15.40;99.90;;;;;;5027607;28;20183;-67
2022/10/07 06:43:55;;;;;;;14.53;8.83;;;15.30;99.90;;;;;;5027820;28;20210;-65
2022/10/07 06:46:21;;;;;;;6.22;4.50;;;15.50;99.90;;;;;;5027747;28;20198;-66
2022/10/07 06:48:46;;;;;;;5.57;3.73;;;15.40;99.90;;;;;;5028200;28;20184;-66
2022/10/07 06:51:17;;;;;;;4.50;4.10;;;15.70;99.90;;;;;;5029424;28;20225;-68
2022/10/07 06:53:43;;;;;;;4.78;3.60;;;16.00;99.90;;;;;;5026675;28;20177;-67
2022/10/07 06:56:11;;;;;;;6.10;3.80;;;16.00;99.90;;;;;;5026610;28;20292;-67
2022/10/07 06:58:37;;;;;;;6.63;5.07;;;16.30;99.90;;;;;;5028588;28;20224;-68
2022/10/07 07:01:03;;;;;;;5.10;3.67;;;16.80;99.90;;;;;;5029735;28;20214;-68
2022/10/07 07:03:28;;;;;;;6.57;3.60;;;16.90;99.90;;;;;;5026700;28;20201;-70
2022/10/07 07:05:54;;;;;;;6.97;4.40;;;17.00;99.90;;;;;;5029633;28;20202;-68
2022/10/07 07:08:22;;;;;;;7.60;4.27;;;16.90;99.90;;;;;;5027300;28;20185;-71
2022/10/07 07:10:48;;;;;;;5.07;4.57;;;17.40;99.90;;;;;;5027945;28;20272;-72
2022/10/07 07:13:14;;;;;;;6.28;4.28;;;17.30;99.90;;;;;;5021162;28;20198;-70
2022/10/07 07:15:40;;;;;;;7.95;6.30;;;17.50;99.90;;;;;;5032519;28;20550;-71
2022/10/07 07:18:09;;;;;;;5.63;4.88;;;17.40;99.90;;;;;;5042575;28;20198;-71
2022/10/07 07:20:38;;;;;;;9.85;4.47;;;17.40;99.90;;;;;;5021878;28;20293;-72
2022/10/07 07:23:11;;;;;;;7.68;5.20;;;17.60;99.90;;;;;;5028044;28;20202;-70
2022/10/07 07:25:38;;;;;;;6.85;4.82;;;17.70;99.90;;;;;;5035259;28;20210;-64
2022/10/07 07:28:06;;;;;;;6.68;4.93;;;17.70;99.90;;;;;;5025522;28;20185;-67
2022/10/07 07:30:33;;;;;;;6.05;4.63;;;17.50;99.90;;;;;;5028138;28;20235;-70
2022/10/07 07:32:59;;;;;;;6.72;4.60;;;18.00;99.90;;;;;;5027419;28;20198;-67
2022/10/07 07:35:27;;;;;;;5.67;4.80;;;17.70;99.90;;;;;;5033174;28;20213;-67
2022/10/07 07:37:53;;;;;;;5.38;4.88;;;17.80;99.90;;;;;;5032716;28;20537;-70
2022/10/07 07:40:20;;;;;;;7.90;5.93;;;17.90;99.90;;;;;;5027053;28;20273;-72
2022/10/07 07:42:46;;;;;;;6.72;5.85;;;17.90;99.90;;;;;;5022621;28;20209;-69
2022/10/07 07:45:12;;;;;;;6.35;5.75;;;17.80;99.90;;;;;;5026589;28;20194;-71
2022/10/07 07:47:37;;;;;;;6.47;5.90;;;18.10;99.90;;;;;;5024674;28;20205;-74
2022/10/07 07:50:04;;;;;;;9.73;5.27;;;18.30;99.90;;;;;;5027502;28;20652;-70
2022/10/07 07:52:31;;;;;;;6.45;5.45;;;18.30;99.90;;;;;;5031683;28;20529;-72
2022/10/07 07:54:57;;;;;;;6.68;6.18;;;18.40;99.90;;;;;;5031656;28;20594;-73
2022/10/07 07:57:25;;;;;;;5.38;4.88;;;18.50;99.90;;;;;;5038875;28;20211;-68
2022/10/07 07:59:50;;;;;;;4.65;4.18;;;18.50;99.90;;;;;;5033649;28;20281;-67
2022/10/07 08:02:16;;;;;;;7.43;4.63;;;18.60;99.90;;;;;;5029487;28;20297;-68
2022/10/07 08:04:42;;;;;;;6.13;4.17;;;18.60;99.90;;;;;;5025728;28;20269;-70
2022/10/07 08:07:11;;;;;;;4.27;3.87;;;18.70;99.90;;;;;;5034302;28;20536;-70
2022/10/07 08:09:37;;;;;;;6.65;4.43;;;18.80;99.90;;;;;;5031369;28;20241;-70
2022/10/07 08:12:03;;;;;;;5.10;4.40;;;19.00;99.90;;;;;;5036456;28;20276;-69
2022/10/07 08:14:30;;;;;;;5.33;4.10;;;19.20;99.90;;;;;;5023267;28;20273;-71
2022/10/07 08:16:58;;;;;;;5.40;3.88;;;19.50;99.90;;;;;;5031323;28;20457;-70
2022/10/07 08:19:25;;;;;;;4.00;3.60;;;19.40;99.90;;;;;;5036081;28;20571;-71
2022/10/07 08:21:51;;;;;;;4.22;3.60;;;19.50;99.90;;;;;;5018318;28;20198;-73
2022/10/07 08:24:17;;;;;;;5.20;4.05;;;19.30;99.90;;;;;;5030183;28;20190;-76
2022/10/07 08:26:43;;;;;;;5.03;3.55;;;19.30;99.90;;;;;;5042544;28;20612;-73
2022/10/07 08:29:09;;;;;;;7.97;4.10;;;19.40;99.90;;;;;;5029893;28;20205;-76
2022/10/07 08:31:35;;;;;;;6.57;4.47;;;19.40;99.90;;;;;;5038982;28;21064;-69
2022/10/07 08:34:02;;;;;;;7.03;5.40;;;19.40;99.90;;;;;;5030271;28;20433;-70
2022/10/07 08:36:31;;;;;;;6.20;4.20;;;19.60;99.90;;;;;;5028510;28;20716;-71
2022/10/07 08:38:57;;;;;;;3.88;3.58;;;19.60;99.90;;;;;;5029066;28;20615;-69
2022/10/07 08:41:38;;;;;;;4.00;3.63;;;19.70;99.80;;;;;;5027880;28;20197;-69
2022/10/07 08:44:12;;;;;;;4.95;3.85;;;19.90;99.40;;;;;;5025428;28;20228;-70
2022/10/07 08:46:46;;;;;;;5.45;3.80;;;20.00;99.20;;;;;;5025086;28;20234;-68
2022/10/07 08:49:16;;;;;;;4.28;3.80;;;20.00;99.20;;;;;;5029985;28;20187;-70
2022/10/07 08:51:57;;;;;;;5.85;4.40;;;20.00;99.40;;;;;;5031851;28;20193;-71
2022/10/07 08:54:29;;;;;;;7.85;4.30;;;20.00;99.10;;;;;;5027460;28;20189;-66
2022/10/07 08:57:00;;;;;;;6.15;4.28;;;19.70;99.40;;;;;;5029007;28;20202;-68
2022/10/07 08:59:31;;;;;;;5.43;3.92;;;20.10;99.20;;;;;;5029083;28;20193;-67
2022/10/07 09:02:15;;;;;;;7.10;4.50;;;20.00;99.20;;;;;;5022231;28;20241;-69
2022/10/07 09:04:56;;;;;;;5.45;4.95;;;20.00;99.20;;;;;;5025937;28;20195;-70
2022/10/07 09:07:30;;;;;;;4.90;4.22;;;20.10;99.20;;;;;;5026972;28;20182;-62
2022/10/07 09:10:02;;;;;;;4.10;3.30;;;20.10;99.00;;;;;;5026642;28;20198;-62
2022/10/07 09:12:42;;;;;;;5.53;3.85;;;20.10;98.40;;;;;;5028617;28;20198;-62
2022/10/07 09:15:19;;;;;;;5.63;3.55;;;20.20;98.30;;;;;;5031375;28;20229;-62
2022/10/07 09:18:00;;;;;;;4.30;3.55;;;20.10;98.30;;;;;;5024083;28;20186;-62
2022/10/07 09:20:32;;;;;;;8.85;3.72;;;20.10;98.70;;;;;;5027339;28;20189;-62
2022/10/07 09:22:59;;;;;;;4.00;3.60;;;20.20;98.60;;;;;;5027081;28;20212;-62
2022/10/07 09:25:27;;;;;;;5.28;3.80;;;20.30;98.60;;;;;;5028886;28;20290;-72
2022/10/07 09:27:53;;;;;;;4.60;4.20;;;20.30;98.70;;;;;;5026242;28;20185;-70
2022/10/07 09:30:21;;;;;;;4.63;4.15;;;20.40;98.60;;;;;;5026994;28;20178;-70
2022/10/07 09:32:50;;;;;;;4.43;3.97;;;20.50;98.50;;;;;;5028506;28;20213;-72
2022/10/07 09:35:18;;;;;;;4.93;4.28;;;20.80;98.40;;;;;;5028812;28;20217;-68
2022/10/07 09:38:03;;;;;;;7.72;4.38;;;21.10;97.70;;;;;;5024860;28;20190;-67
2022/10/07 09:40:31;;;;;;;5.60;4.17;;;21.60;96.80;;;;;;5028685;28;20191;-67
2022/10/07 09:42:58;;;;;;;7.47;4.53;;;22.00;96.30;;;;;;5024264;28;20604;-69
2022/10/07 09:45:32;;;;;;;5.10;4.60;;;22.90;94.70;;;;;;5026901;28;20643;-68
2022/10/07 09:48:14;;;;;;;5.30;4.43;;;23.50;92.80;;;;;;5028615;28;20548;-62
2022/10/07 09:50:42;;;;;;;5.13;4.03;;;23.30;92.40;;;;;;5026697;28;20518;-67
2022/10/07 09:53:23;;;;;;;4.70;4.30;;;23.30;92.50;;;;;;5028545;28;20456;-70
2022/10/07 09:55:50;;;;;;;5.57;4.30;;;23.10;92.80;;;;;;5029831;28;20473;-64
2022/10/07 09:58:19;;;;;;;7.90;4.90;;;22.80;93.20;;;;;;5023702;28;20463;-63
2022/10/07 10:00:47;;;;;;;6.20;4.80;;;22.60;93.50;;;;;;5022519;28;20434;-64
2022/10/07 10:03:13;;;;;;;5.03;4.53;;;22.40;93.80;;;;;;5022601;28;20468;-65
2022/10/07 10:05:50;;;;;;;5.20;4.65;;;22.20;94.30;;;;;;5022508;28;20617;-64
2022/10/07 10:08:16;;;;;;;6.70;5.20;;;22.00;94.20;;;;;;5033920;28;20174;-64
2022/10/07 10:10:53;;;;;;;6.30;5.43;;;21.40;94.70;;;;;;5032266;28;20186;-66
2022/10/07 10:13:28;;;;;;;8.88;5.05;;;21.80;95.20;;;;;;5020839;28;20211;-64
2022/10/07 10:15:54;;;;;;;5.53;5.03;;;21.60;95.20;;;;;;5029666;28;20278;-65
2022/10/07 10:18:29;;;;;;;5.90;4.53;;;21.60;95.30;;;;;;5029418;28;20730;-64
2022/10/07 10:20:55;;;;;;;5.30;4.45;;;21.50;95.60;;;;;;5023852;28;20197;-63
2022/10/07 10:23:39;;;;;;;7.47;4.97;;;21.50;95.20;;;;;;5029016;28;20565;-64
2022/10/07 10:26:26;;;;;;;11.67;4.53;;;21.60;95.10;;;;;;5024162;28;21226;-63
2022/10/07 10:29:16;;;;;;;6.88;5.00;;;21.70;94.70;;;;;;5018525;28;20844;-66
2022/10/07 10:32:04;;;;;;;4.33;3.93;;;21.80;94.90;;;;;;5025081;28;20915;-68
2022/10/07 10:34:48;;;;;;;5.30;4.80;;;22.30;95.00;;;;;;5023281;28;20445;-70
2022/10/07 10:37:39;;;;;;;4.90;4.50;;;21.60;94.70;;;;;;5026390;28;20240;-67
2022/10/07 10:40:19;;;;;;;5.10;4.70;;;21.60;95.30;;;;;;5027661;28;20273;-69
2022/10/07 10:42:48;;;;;;;5.55;4.90;;;21.50;95.10;;;;;;5019958;28;20549;-65
2022/10/07 10:45:18;;;;;;;4.35;3.83;;;21.40;95.30;;;;;;5026742;28;20291;-66
2022/10/07 10:48:10;;;;;;;5.88;3.90;;;21.40;95.60;;;;;;5025086;28;20182;-67
2022/10/07 10:50:52;;;;;;;5.72;4.60;;;21.60;95.60;;;;;;5022334;28;20179;-66
2022/10/07 10:53:44;;;;;;;6.30;4.57;;;22.00;94.80;;;;;;5021982;28;20231;-66
2022/10/07 10:56:47;;;;;;;7.53;5.47;;;23.00;93.60;;;;;;5028271;28;20521;-66
2022/10/07 10:59:55;;;;;;;6.07;5.47;;;23.40;92.80;;;;;;4986851;28;20442;-65
2022/10/07 11:02:45;;;;;;;5.93;5.13;;;23.20;92.20;;;;;;5020432;28;20538;-65
2022/10/07 11:05:16;;;;;;;5.70;5.20;;;23.20;92.30;;;;;;5025208;28;20510;-65
2022/10/07 11:07:49;;;;;;;9.00;5.30;;;23.10;92.80;;;;;;5025067;28;20441;-66
2022/10/07 11:10:18;;;;;;;6.13;4.70;;;23.10;92.60;;;;;;5024956;28;20437;-66
2022/10/07 11:12:49;;;;;;;5.30;4.80;;;23.20;92.60;;;;;;5024560;28;20440;-66
2022/10/07 11:15:40;;;;;;;5.03;4.60;;;23.10;92.50;;;;;;5025742;28;21881;-65
2022/10/07 11:18:21;;;;;;;5.53;5.03;;;23.00;93.00;;;;;;5028732;28;20527;-67
2022/10/07 11:20:49;;;;;;;7.90;4.60;;;22.50;93.70;;;;;;4991970;28;1059672;-68
2022/10/07 11:23:33;;;;;;;5.90;5.30;;;22.10;93.90;;;;;;5031411;28;20765;-67
2022/10/07 11:26:09;;;;;;;7.87;5.97;;;22.10;94.30;;;;;;5028825;28;20464;-65
2022/10/07 11:28:38;;;;;;;6.43;5.72;;;21.80;94.60;;;;;;5028068;28;20620;-66
2022/10/07 11:31:23;;;;;;;5.83;5.10;;;21.60;95.20;;;;;;5032141;28;20224;-65
2022/10/07 11:34:03;;;;;;;6.43;5.82;;;21.50;95.70;;;;;;5029705;28;20521;-65
2022/10/07 11:37:02;;;;;;;6.85;5.40;;;21.40;96.00;;;;;;5028206;28;20666;-68
2022/10/07 11:39:28;;;;;;;6.20;5.60;;;21.20;96.30;;;;;;5031445;28;20196;-71
2022/10/07 11:42:13;;;;;;;5.22;4.82;;;21.10;96.50;;;;;;5028751;28;20194;-69
2022/10/07 11:44:52;;;;;;;6.72;5.72;;;21.10;96.90;;;;;;5028018;28;20252;-70
2022/10/07 11:47:33;;;;;;;5.85;5.32;;;21.10;97.00;;;;;;5023918;28;20186;-69
2022/10/07 11:50:17;;;;;;;9.65;5.78;;;21.10;97.10;;;;;;5030313;28;20187;-69
2022/10/07 11:52:46;;;;;;;5.90;5.05;;;21.10;97.10;;;;;;5028012;28;20721;-69
2022/10/07 11:55:33;;;;;;;8.18;5.93;;;21.20;97.10;;;;;;5030827;28;20213;-69
2022/10/07 11:58:02;;;;;;;5.35;4.85;;;21.10;96.80;;;;;;5027944;28;20193;-69
2022/10/07 12:00:30;;;;;;;6.30;5.50;;;21.10;97.10;;;;;;5029753;28;20194;-69
2022/10/07 12:03:10;;;;;;;5.43;4.93;;;21.10;97.20;;;;;;5028530;28;20236;-69
2022/10/07 12:05:35;;;;;;;6.55;5.43;;;21.20;97.10;;;;;;5032159;28;20198;-69
2022/10/07 12:08:23;;;;;;;6.30;5.00;;;21.20;97.00;;;;;;5029208;28;20189;-69
2022/10/07 12:10:54;;;;;;;7.18;5.30;;;21.20;97.30;;;;;;5026015;28;20183;-70
2022/10/07 12:13:19;;;;;;;6.95;6.25;;;21.30;97.10;;;;;;5024523;28;20186;-71
2022/10/07 12:15:46;;;;;;;6.13;4.90;;;21.30;96.60;;;;;;5029262;28;20717;-69
2022/10/07 12:18:12;;;;;;;6.03;5.40;;;21.30;96.80;;;;;;5025850;28;20182;-68
2022/10/07 12:20:49;;;;;;;6.23;5.63;;;21.30;97.00;;;;;;5027889;28;20691;-69
2022/10/07 12:23:21;;;;;;;7.33;6.53;;;21.30;97.40;;;;;;5030147;28;20610;-69
2022/10/07 12:26:00;;;;;;;6.72;5.70;;;21.30;97.10;;;;;;5030601;28;20452;-70
2022/10/07 12:28:30;;;;;;;6.15;5.45;;;21.30;97.10;;;;;;5032763;28;20323;-70
2022/10/07 12:31:02;;;;;;;7.22;5.18;;;21.20;97.10;;;;;;5031699;28;20183;-69
2022/10/07 12:33:36;;;;;;;9.43;5.82;;;21.20;97.60;;;;;;5028098;28;20175;-67
2022/10/07 12:36:30;;;;;;;6.63;5.70;;;21.30;97.20;;;;;;5027086;28;20210;-67
2022/10/07 12:38:55;;;;;;;6.25;5.75;;;21.40;97.30;;;;;;5024469;28;20241;-68
2022/10/07 12:41:34;;;;;;;6.10;5.50;;;21.40;97.30;;;;;;5020812;28;20265;-69
2022/10/07 12:44:03;;;;;;;6.32;5.82;;;21.50;97.10;;;;;;5026739;28;20661;-69
2022/10/07 12:46:37;;;;;;;6.38;5.75;;;21.50;96.80;;;;;;5028191;28;20221;-68
2022/10/07 12:49:21;;;;;;;5.75;5.32;;;21.60;96.70;;;;;;5029947;28;20803;-68
2022/10/07 12:51:48;;;;;;;6.35;5.75;;;21.40;96.70;;;;;;5028274;28;20248;-69
2022/10/07 12:54:30;;;;;;;6.82;6.22;;;21.40;96.80;;;;;;5026738;28;20190;-67
2022/10/07 12:56:57;;;;;;;7.00;5.47;;;21.20;97.10;;;;;;5030020;28;20258;-69
2022/10/07 12:59:46;;;;;;;7.25;5.53;;;21.20;97.40;;;;;;5029701;28;20529;-69
2022/10/07 13:02:21;;;;;;;8.30;6.40;;;21.10;97.50;;;;;;5022681;28;20242;-68
2022/10/07 13:05:11;;;;;;;6.65;5.75;;;21.10;97.60;;;;;;5028752;28;20178;-70
2022/10/07 13:08:08;;;;;;;6.30;5.55;;;21.10;97.70;;;;;;5018244;28;20197;-68
2022/10/07 13:10:55;;;;;;;7.05;6.45;;;21.10;97.60;;;;;;5016773;28;20190;-68
2022/10/07 13:13:34;;;;;;;5.63;5.13;;;21.10;97.30;;;;;;5022228;28;20182;-68